createdAt,value
2018-12-10T00:02:23.460Z,98.46
2018-12-10T00:04:53.303Z,98.37
2018-12-10T00:07:22.409Z,98.93
2018-12-10T00:09:50.650Z,98.87
2018-12-10T00:12:19.659Z,99.01
2018-12-10T00:14:48.406Z,98.65
2018-12-10T00:17:16.396Z,98.18
2018-12-10T00:19:46.247Z,99.33
2018-12-10T00:22:15.185Z,98.55
2018-12-10T00:24:44.996Z,98.53
2018-12-10T00:27:14.174Z,99.68
2018-12-10T00:29:41.755Z,99.81
2018-12-10T00:32:11.359Z,98.87
2018-12-10T00:34:39.049Z,98.63
2018-12-10T00:37:07.232Z,98.17
2018-12-10T00:39:36.281Z,97.85
2018-12-10T00:42:04.348Z,99.10
2018-12-10T00:44:35.502Z,99.69
2018-12-10T00:47:04.866Z,99.32
2018-12-10T00:49:33.453Z,99.74
2018-12-10T00:52:03.971Z,100.00
2018-12-10T00:54:32.877Z,100.00
2018-12-10T00:57:01.263Z,100.00
2018-12-10T00:59:30.744Z,100.00
2018-12-10T01:01:59.575Z,100.00
2018-12-10T01:04:27.302Z,100.00
2018-12-10T01:06:55.017Z,100.00
2018-12-10T01:09:23.209Z,100.00
2018-12-10T01:11:50.937Z,100.00
2018-12-10T01:14:18.885Z,100.00
2018-12-10T01:16:47.575Z,100.00
2018-12-10T01:19:15.635Z,100.00
2018-12-10T01:21:44.156Z,100.00
2018-12-10T01:24:12.344Z,100.00
2018-12-10T01:26:41.018Z,100.00
2018-12-10T01:29:10.194Z,100.00
2018-12-10T01:31:37.881Z,100.00
2018-12-10T01:34:07.221Z,100.00
2018-12-10T01:36:35.048Z,100.00
2018-12-10T01:39:04.577Z,100.00
2018-12-10T01:41:32.091Z,100.00
2018-12-10T01:44:01.279Z,100.00
2018-12-10T01:46:29.409Z,100.00
2018-12-10T01:48:57.661Z,100.00
2018-12-10T01:51:27.169Z,100.00
2018-12-10T01:53:57.036Z,100.00
2018-12-10T01:56:24.930Z,100.00
2018-12-10T01:58:52.684Z,100.00
2018-12-10T02:01:23.768Z,100.00
2018-12-10T02:03:52.460Z,100.00
2018-12-10T02:06:21.659Z,100.00
2018-12-10T02:08:49.602Z,100.00
2018-12-10T02:11:19.160Z,100.00
2018-12-10T02:13:47.134Z,100.00
2018-12-10T02:16:17.370Z,100.00
2018-12-10T02:18:46.210Z,100.00
2018-12-10T02:21:14.488Z,100.00
2018-12-10T02:23:43.446Z,100.00
2018-12-10T02:26:10.992Z,100.00
2018-12-10T02:28:46.588Z,100.00
2018-12-10T02:31:14.319Z,100.00
2018-12-10T02:33:41.895Z,100.00
2018-12-10T02:36:09.447Z,100.00
2018-12-10T02:38:37.018Z,100.00
2018-12-10T02:41:04.654Z,100.00
2018-12-10T02:43:32.199Z,100.00
2018-12-10T02:45:59.850Z,100.00
2018-12-10T02:48:27.412Z,100.00
2018-12-10T02:50:54.915Z,100.00
2018-12-10T02:53:22.461Z,100.00
2018-12-10T02:55:50.151Z,100.00
2018-12-10T02:58:17.709Z,100.00
2018-12-10T03:00:45.283Z,100.00
2018-12-10T03:03:12.811Z,100.00
2018-12-10T03:05:40.353Z,100.00
2018-12-10T03:08:07.889Z,100.00
2018-12-10T03:10:35.677Z,100.00
2018-12-10T03:13:03.208Z,100.00
2018-12-10T03:15:30.758Z,100.00
2018-12-10T03:17:58.290Z,100.00
2018-12-10T03:20:25.852Z,100.00
2018-12-10T03:22:53.397Z,100.00
2018-12-10T03:25:20.956Z,100.00
2018-12-10T03:27:48.522Z,100.00
2018-12-10T03:30:16.086Z,100.00
2018-12-10T03:32:43.688Z,100.00
2018-12-10T03:35:11.248Z,100.00
2018-12-10T03:37:38.783Z,100.00
2018-12-10T03:40:06.360Z,100.00
2018-12-10T03:42:33.894Z,100.00
2018-12-10T03:45:01.474Z,100.00
2018-12-10T03:47:28.987Z,100.00
2018-12-10T03:49:56.667Z,100.00
2018-12-10T03:52:24.221Z,100.00
2018-12-10T03:54:51.786Z,100.00
2018-12-10T03:57:19.426Z,100.00
2018-12-10T03:59:47.078Z,100.00
2018-12-10T04:02:14.622Z,100.00
2018-12-10T04:04:42.176Z,100.00
2018-12-10T04:07:09.916Z,100.00
2018-12-10T04:09:37.509Z,100.00
2018-12-10T04:12:05.078Z,100.00
2018-12-10T04:14:32.681Z,100.00
2018-12-10T04:17:00.225Z,100.00
2018-12-10T04:28:22.526Z,100.00
2018-12-10T04:30:50.075Z,100.00
2018-12-10T04:33:17.606Z,100.00
2018-12-10T04:35:45.233Z,100.00
2018-12-10T04:38:12.799Z,100.00
2018-12-10T04:40:40.404Z,100.00
2018-12-10T04:43:07.933Z,100.00
2018-12-10T04:45:35.568Z,100.00
2018-12-10T04:48:03.138Z,100.00
2018-12-10T04:50:30.742Z,100.00
2018-12-10T04:52:58.286Z,100.00
2018-12-10T04:55:25.916Z,100.00
2018-12-10T04:57:53.523Z,100.00
2018-12-10T05:00:21.076Z,100.00
2018-12-10T05:02:48.633Z,100.00
2018-12-10T05:05:16.203Z,100.00
2018-12-10T05:07:43.774Z,100.00
2018-12-10T05:10:11.362Z,100.00
2018-12-10T05:12:38.907Z,100.00
2018-12-10T05:15:06.502Z,100.00
2018-12-10T05:17:34.036Z,100.00
2018-12-10T05:20:01.579Z,100.00
2018-12-10T05:22:29.109Z,100.00
2018-12-10T05:25:00.491Z,100.00
2018-12-10T05:27:28.068Z,100.00
2018-12-10T05:29:55.858Z,100.00
2018-12-10T05:32:23.388Z,100.00
2018-12-10T05:34:50.988Z,100.00
2018-12-10T05:37:18.771Z,100.00
2018-12-10T05:39:46.443Z,100.00
2018-12-10T05:42:14.418Z,100.00
2018-12-10T05:44:42.038Z,100.00
2018-12-10T05:47:09.566Z,100.00
2018-12-10T05:49:37.129Z,100.00
2018-12-10T05:52:04.820Z,100.00
2018-12-10T05:54:32.368Z,100.00
2018-12-10T05:56:59.922Z,100.00
2018-12-10T05:59:27.456Z,100.00
2018-12-10T06:01:55.072Z,100.00
2018-12-10T06:04:22.591Z,100.00
2018-12-10T06:06:50.160Z,100.00
2018-12-10T06:09:17.707Z,100.00
2018-12-10T06:11:45.487Z,100.00
2018-12-10T06:14:13.067Z,100.00
2018-12-10T06:16:40.624Z,100.00
2018-12-10T06:19:08.176Z,100.00
2018-12-10T06:21:35.729Z,100.00
2018-12-10T06:24:03.276Z,100.00
2018-12-10T06:26:30.852Z,100.00
2018-12-10T06:28:59.282Z,100.00
2018-12-10T06:31:26.854Z,100.00
2018-12-10T06:33:54.407Z,100.00
2018-12-10T06:36:21.965Z,100.00
2018-12-10T06:38:49.496Z,100.00
2018-12-10T06:41:17.052Z,100.00
2018-12-10T06:43:44.595Z,100.00
2018-12-10T06:46:12.321Z,100.00
2018-12-10T06:48:39.873Z,100.00
2018-12-10T06:51:07.433Z,100.00
2018-12-10T06:53:34.978Z,100.00
2018-12-10T06:56:02.531Z,100.00
2018-12-10T06:58:30.059Z,100.00
2018-12-10T07:00:57.624Z,100.00
2018-12-10T07:03:25.161Z,100.00
2018-12-10T07:05:52.725Z,100.00
2018-12-10T07:08:20.240Z,100.00
2018-12-10T07:10:47.824Z,100.00
2018-12-10T07:13:15.523Z,100.00
2018-12-10T07:15:43.111Z,100.00
2018-12-10T07:18:10.632Z,100.00
2018-12-10T07:20:38.242Z,100.00
2018-12-10T07:23:05.857Z,100.00
2018-12-10T07:25:34.656Z,100.00
2018-12-10T07:28:02.663Z,100.00
2018-12-10T07:30:30.255Z,100.00
2018-12-10T07:32:57.843Z,100.00
2018-12-10T07:35:25.392Z,100.00
2018-12-10T07:37:52.974Z,100.00
2018-12-10T07:40:20.562Z,100.00
2018-12-10T07:42:48.103Z,100.00
2018-12-10T07:45:15.636Z,100.00
2018-12-10T07:47:43.204Z,100.00
2018-12-10T07:50:10.815Z,100.00
2018-12-10T07:52:38.418Z,100.00
2018-12-10T07:55:05.954Z,100.00
2018-12-10T07:57:33.540Z,100.00
2018-12-10T08:00:01.077Z,100.00
2018-12-10T08:02:28.632Z,100.00
2018-12-10T08:04:56.164Z,100.00
2018-12-10T08:07:23.833Z,100.00
2018-12-10T08:10:02.632Z,100.00
2018-12-10T08:12:31.382Z,100.00
2018-12-10T08:14:59.046Z,100.00
2018-12-10T08:17:26.640Z,100.00
2018-12-10T08:19:55.804Z,100.00
2018-12-10T08:22:23.565Z,100.00
2018-12-10T08:24:51.652Z,100.00
2018-12-10T08:27:19.643Z,100.00
2018-12-10T08:29:47.568Z,100.00
2018-12-10T08:32:16.085Z,100.00
2018-12-10T08:34:43.848Z,100.00
2018-12-10T08:37:11.500Z,100.00
2018-12-10T08:39:39.555Z,100.00
2018-12-10T08:42:08.708Z,100.00
2018-12-10T08:44:36.929Z,100.00
2018-12-10T08:47:04.584Z,100.00
2018-12-10T08:49:32.256Z,100.00
2018-12-10T08:52:00.839Z,100.00
2018-12-10T08:54:28.703Z,100.00
2018-12-10T08:56:56.324Z,100.00
2018-12-10T08:59:25.196Z,100.00
2018-12-10T09:01:52.813Z,100.00
2018-12-10T09:04:20.468Z,100.00
2018-12-10T09:06:48.003Z,100.00
2018-12-10T09:09:15.753Z,100.00
2018-12-10T09:11:43.353Z,100.00
2018-12-10T09:14:10.971Z,100.00
2018-12-10T09:16:38.599Z,100.00
2018-12-10T09:19:06.187Z,100.00
2018-12-10T09:21:33.728Z,100.00
2018-12-10T09:24:01.310Z,100.00
2018-12-10T09:26:28.831Z,100.00
2018-12-10T09:28:56.427Z,100.00
2018-12-10T09:31:23.985Z,100.00
2018-12-10T09:33:51.570Z,100.00
2018-12-10T09:36:19.125Z,100.00
2018-12-10T09:38:47.003Z,100.00
2018-12-10T09:41:14.824Z,100.00
2018-12-10T09:43:42.385Z,100.00
2018-12-10T09:46:09.970Z,100.00
2018-12-10T09:48:37.607Z,100.00
2018-12-10T09:51:05.170Z,100.00
2018-12-10T09:53:32.739Z,100.00
2018-12-10T09:56:00.297Z,100.00
2018-12-10T09:58:28.025Z,100.00
2018-12-10T10:00:55.639Z,100.00
2018-12-10T10:03:23.167Z,100.00
2018-12-10T10:05:50.736Z,100.00
2018-12-10T10:08:18.311Z,100.00
2018-12-10T10:10:45.905Z,100.00
2018-12-10T10:13:13.439Z,100.00
2018-12-10T10:15:41.043Z,100.00
2018-12-10T10:18:08.562Z,100.00
2018-12-10T10:20:36.143Z,100.00
2018-12-10T10:23:44.099Z,100.00
2018-12-10T10:26:11.696Z,100.00
2018-12-10T10:28:39.222Z,99.89
2018-12-10T10:31:06.767Z,100.00
2018-12-10T10:33:34.295Z,100.00
2018-12-10T10:36:01.867Z,100.00
2018-12-10T10:38:30.034Z,100.00
2018-12-10T10:40:57.840Z,100.00
2018-12-10T10:43:25.517Z,100.00
2018-12-10T10:45:53.090Z,100.00
2018-12-10T10:48:20.615Z,100.00
2018-12-10T10:50:48.352Z,100.00
2018-12-10T10:53:15.898Z,99.85
2018-12-10T10:55:43.457Z,99.29
2018-12-10T10:58:10.967Z,98.95
2018-12-10T11:00:44.080Z,97.65
2018-12-10T11:06:07.473Z,93.87
2018-12-10T11:08:35.068Z,93.49
2018-12-10T11:11:02.728Z,92.95
2018-12-10T11:13:30.248Z,94.26
2018-12-10T11:15:58.419Z,92.89
2018-12-10T11:18:25.982Z,93.58
2018-12-10T11:20:53.660Z,90.88
2018-12-10T11:23:21.198Z,87.51
2018-12-10T11:25:50.056Z,86.88
2018-12-10T11:28:17.613Z,86.62
2018-12-10T11:30:45.229Z,87.93
2018-12-10T11:33:12.776Z,88.32
2018-12-10T11:35:40.351Z,86.70
2018-12-10T11:38:07.965Z,87.29
2018-12-10T11:40:35.577Z,88.07
2018-12-10T11:43:03.114Z,86.46
2018-12-10T11:45:30.683Z,86.92
2018-12-10T11:47:58.234Z,88.82
2018-12-10T11:50:25.794Z,90.09
2018-12-10T11:52:53.334Z,92.43
2018-12-10T11:55:20.992Z,91.32
2018-12-10T11:57:48.532Z,92.34
2018-12-10T12:00:16.093Z,92.93
2018-12-10T12:02:43.649Z,92.35
2018-12-10T12:05:11.166Z,93.59
2018-12-10T12:07:38.708Z,93.46
2018-12-10T12:10:06.723Z,93.86
2018-12-10T12:12:34.263Z,93.37
2018-12-10T12:15:01.881Z,92.99
2018-12-10T12:17:29.431Z,94.09
2018-12-10T12:19:56.941Z,94.87
2018-12-10T12:22:24.560Z,97.41
2018-12-10T12:24:52.361Z,94.18
2018-12-10T12:27:20.497Z,95.24
2018-12-10T12:29:48.405Z,97.09
2018-12-10T12:32:16.301Z,97.42
2018-12-10T12:34:43.998Z,97.28
2018-12-10T12:37:11.612Z,97.59
2018-12-10T12:39:39.133Z,97.33
2018-12-10T12:42:06.842Z,99.79
2018-12-10T12:44:34.567Z,99.41
2018-12-10T12:47:02.128Z,98.48
2018-12-10T12:49:30.161Z,97.38
2018-12-10T12:51:58.880Z,97.25
2018-12-10T12:54:26.504Z,96.31
2018-12-10T12:56:54.176Z,96.59
2018-12-10T12:59:22.001Z,95.88
2018-12-10T13:01:49.735Z,96.06
2018-12-10T13:04:17.317Z,95.42
2018-12-10T13:06:44.906Z,93.84
2018-12-10T13:09:12.761Z,94.26
2018-12-10T13:11:43.079Z,92.47
2018-12-10T13:14:11.337Z,91.54
2018-12-10T13:16:40.068Z,91.28
2018-12-10T13:19:08.420Z,91.05
2018-12-10T13:21:36.738Z,90.30
2018-12-10T13:24:05.645Z,91.21
2018-12-10T13:26:33.792Z,90.99
2018-12-10T13:29:01.786Z,91.94
2018-12-10T13:31:30.654Z,91.24
2018-12-10T13:33:58.383Z,91.64
2018-12-10T13:36:29.123Z,90.25
2018-12-10T13:38:57.807Z,91.37
2018-12-10T13:41:26.521Z,90.88
2018-12-10T13:43:54.598Z,89.24
2018-12-10T13:46:22.859Z,87.69
2018-12-10T13:48:52.777Z,89.35
2018-12-10T13:51:21.479Z,87.03
2018-12-10T13:53:49.325Z,86.40
2018-12-10T13:56:17.255Z,84.91
2018-12-10T13:58:44.949Z,86.03
2018-12-10T14:01:14.591Z,85.75
2018-12-10T14:03:43.604Z,85.01
2018-12-10T14:06:19.589Z,84.91
2018-12-10T14:08:54.346Z,84.42
2018-12-10T14:11:27.786Z,83.45
2018-12-10T14:14:02.181Z,83.99
2018-12-10T14:16:33.255Z,84.50
2018-12-10T14:19:01.080Z,83.46
2018-12-10T14:21:29.498Z,82.34
2018-12-10T14:23:59.846Z,81.90
2018-12-10T14:26:29.587Z,80.45
2018-12-10T14:28:57.224Z,81.02
2018-12-10T14:31:27.466Z,81.47
2018-12-10T14:33:57.932Z,80.92
2018-12-10T14:36:26.006Z,81.43
2018-12-10T14:38:54.165Z,81.84
2018-12-10T14:41:25.858Z,82.54
2018-12-10T14:43:57.378Z,82.42
2018-12-10T14:46:27.117Z,82.63
2018-12-10T14:48:56.337Z,82.81
2018-12-10T14:51:26.644Z,82.82
2018-12-10T14:53:58.081Z,83.52
2018-12-10T14:56:25.919Z,83.08
2018-12-10T14:58:53.629Z,82.90
2018-12-10T15:01:21.824Z,85.28
2018-12-10T15:03:49.759Z,85.53
2018-12-10T15:06:19.127Z,86.93
2018-12-10T15:08:47.131Z,86.62
2018-12-10T15:11:18.177Z,87.95
2018-12-10T15:13:45.928Z,88.27
2018-12-10T15:16:13.523Z,87.18
2018-12-10T15:18:41.718Z,87.75
2018-12-10T15:21:10.729Z,86.96
2018-12-10T15:23:39.644Z,86.99
2018-12-10T15:26:07.303Z,87.25
2018-12-10T15:28:38.321Z,87.47
2018-12-10T15:31:06.423Z,87.51
2018-12-10T15:33:34.747Z,87.44
2018-12-10T15:36:03.282Z,87.41
2018-12-10T15:38:30.933Z,87.82
2018-12-10T15:40:59.093Z,87.35
2018-12-10T15:43:26.906Z,87.30
2018-12-10T15:45:55.113Z,88.26
2018-12-10T15:48:23.229Z,87.67
2018-12-10T15:50:51.451Z,87.82
2018-12-10T15:53:19.463Z,87.50
2018-12-10T15:55:47.209Z,88.01
2018-12-10T15:58:14.823Z,87.37
2018-12-10T16:00:42.394Z,88.23
2018-12-10T16:03:10.003Z,87.81
2018-12-10T16:05:41.110Z,87.39
2018-12-10T16:08:09.154Z,87.82
2018-12-10T16:10:37.213Z,86.64
2018-12-10T16:13:05.586Z,86.59
2018-12-10T16:15:33.743Z,87.79
2018-12-10T16:18:02.096Z,86.84
2018-12-10T16:20:30.231Z,86.78
2018-12-10T16:22:59.148Z,86.97
2018-12-10T16:25:27.662Z,87.93
2018-12-10T16:27:55.672Z,87.48
2018-12-10T16:30:25.234Z,87.79
2018-12-10T16:32:53.957Z,88.00
2018-12-10T16:35:21.916Z,88.58
2018-12-10T16:37:49.679Z,88.31
2018-12-10T16:40:17.291Z,89.04
2018-12-10T16:42:44.975Z,88.78
2018-12-10T16:45:12.943Z,88.92
2018-12-10T16:47:41.606Z,88.32
2018-12-10T16:50:09.470Z,87.76
2018-12-10T16:52:37.093Z,87.58
2018-12-10T16:55:05.875Z,88.39
2018-12-10T16:57:33.434Z,88.07
2018-12-10T17:00:01.330Z,87.57
2018-12-10T17:02:28.990Z,87.62
2018-12-10T17:04:56.897Z,86.48
2018-12-10T17:07:25.475Z,87.27
2018-12-10T17:09:53.192Z,88.38
2018-12-10T17:12:20.819Z,87.95
2018-12-10T17:14:48.537Z,88.03
2018-12-10T17:17:16.198Z,87.78
2018-12-10T17:19:43.944Z,88.64
2018-12-10T17:22:11.544Z,89.43
2018-12-10T17:24:39.176Z,89.63
2018-12-10T17:27:06.760Z,89.76
2018-12-10T17:29:36.586Z,90.76
2018-12-10T17:32:04.532Z,91.45
2018-12-10T17:34:33.321Z,92.68
2018-12-10T17:37:01.075Z,93.33
2018-12-10T17:39:29.136Z,93.53
2018-12-10T17:41:56.822Z,93.96
2018-12-10T17:44:24.549Z,94.16
2018-12-10T17:46:52.326Z,93.46
2018-12-10T17:49:20.501Z,92.65
2018-12-10T17:51:48.249Z,92.89
2018-12-10T17:54:15.976Z,93.71
2018-12-10T17:56:43.599Z,94.44
2018-12-10T17:59:11.211Z,94.08
2018-12-10T18:01:38.805Z,92.65
2018-12-10T18:04:06.373Z,92.41
2018-12-10T18:06:33.951Z,92.84
2018-12-10T18:09:01.543Z,92.93
2018-12-10T18:11:29.113Z,93.51
2018-12-10T18:13:56.780Z,92.94
2018-12-10T18:16:24.415Z,92.51
2018-12-10T18:18:52.106Z,91.96
2018-12-10T18:21:19.945Z,92.84
2018-12-10T18:23:47.525Z,92.00
2018-12-10T18:26:15.160Z,91.49
2018-12-10T18:28:42.837Z,92.32
2018-12-10T18:31:10.507Z,91.86
2018-12-10T18:33:38.499Z,91.44
2018-12-10T18:36:06.368Z,91.33
2018-12-10T18:38:34.162Z,90.72
2018-12-10T18:41:01.995Z,90.91
2018-12-10T18:43:29.747Z,90.29
2018-12-10T18:45:58.124Z,89.18
2018-12-10T18:48:25.661Z,89.53
2018-12-10T18:50:53.260Z,88.73
2018-12-10T18:53:20.884Z,88.85
2018-12-10T18:55:48.464Z,88.52
2018-12-10T18:58:16.001Z,87.89
2018-12-10T19:00:43.578Z,88.43
2018-12-10T19:03:11.119Z,89.09
2018-12-10T19:05:38.719Z,88.58
2018-12-10T19:08:06.291Z,87.86
2018-12-10T19:10:34.053Z,88.65
2018-12-10T19:13:01.807Z,88.90
2018-12-10T19:15:29.393Z,88.59
2018-12-10T19:17:56.978Z,88.98
2018-12-10T19:20:24.554Z,87.75
2018-12-10T19:22:52.097Z,87.59
2018-12-10T19:25:20.909Z,87.98
2018-12-10T19:27:48.511Z,87.41
2018-12-10T19:30:16.424Z,87.15
2018-12-10T19:32:43.951Z,87.05
2018-12-10T19:35:11.523Z,87.63
2018-12-10T19:37:40.082Z,86.79
2018-12-10T19:40:07.791Z,87.02
2018-12-10T19:42:35.436Z,87.08
2018-12-10T19:45:03.685Z,87.90
2018-12-10T19:47:31.421Z,88.46
2018-12-10T19:49:59.075Z,88.46
2018-12-10T19:52:27.982Z,89.80
2018-12-10T19:54:55.611Z,89.54
2018-12-10T19:57:23.731Z,89.82
2018-12-10T19:59:51.485Z,89.58
2018-12-10T20:02:19.235Z,89.95
2018-12-10T20:04:47.236Z,90.06
2018-12-10T20:07:15.684Z,90.20
2018-12-10T20:09:56.530Z,90.17
2018-12-10T20:12:24.209Z,89.69
2018-12-10T20:14:52.072Z,90.08
2018-12-10T20:17:20.542Z,89.87
2018-12-10T20:19:48.142Z,89.65
2018-12-10T20:22:16.046Z,89.99
2018-12-10T20:24:43.710Z,89.11
2018-12-10T20:27:15.350Z,88.38
2018-12-10T20:29:44.016Z,88.79
2018-12-10T20:32:12.758Z,88.71
2018-12-10T20:34:40.412Z,88.29
2018-12-10T20:37:08.091Z,88.49
2018-12-10T20:39:35.766Z,89.20
2018-12-10T20:42:04.251Z,90.18
2018-12-10T20:44:32.618Z,91.04
2018-12-10T20:47:00.678Z,90.48
2018-12-10T20:49:28.255Z,91.08
2018-12-10T20:51:56.151Z,89.93
2018-12-10T20:54:23.735Z,90.25
2018-12-10T20:56:51.317Z,90.18
2018-12-10T20:59:18.972Z,90.42
2018-12-10T21:01:46.857Z,90.64
2018-12-10T21:04:14.388Z,91.46
2018-12-10T21:06:41.984Z,90.97
2018-12-10T21:09:09.511Z,90.16
2018-12-10T21:11:37.174Z,91.62
2018-12-10T21:14:04.898Z,92.31
2018-12-10T21:16:32.568Z,91.56
2018-12-10T21:19:00.166Z,90.82
2018-12-10T21:21:27.738Z,91.29
2018-12-10T21:23:55.459Z,90.60
2018-12-10T21:26:23.112Z,90.38
2018-12-10T21:28:50.680Z,90.59
2018-12-10T21:31:18.234Z,91.00
2018-12-10T21:33:45.877Z,90.99
2018-12-10T21:36:13.407Z,91.31
2018-12-10T21:38:45.436Z,91.17
2018-12-10T21:41:11.047Z,91.50
2018-12-10T21:43:39.065Z,91.61
2018-12-10T21:46:06.777Z,91.67
2018-12-10T21:48:34.404Z,91.91
2018-12-10T21:51:02.105Z,92.75
2018-12-10T21:53:30.452Z,95.55
2018-12-10T21:55:58.056Z,94.80
2018-12-10T21:58:25.688Z,95.80
2018-12-10T22:00:53.567Z,96.48
2018-12-10T22:03:22.092Z,96.94
2018-12-10T22:05:50.188Z,97.17
2018-12-10T22:08:18.445Z,97.68
2018-12-10T22:10:47.136Z,98.29
2018-12-10T22:13:14.771Z,98.92
2018-12-10T22:15:42.723Z,99.40
2018-12-10T22:18:10.967Z,98.37
2018-12-10T22:20:38.547Z,97.88
2018-12-10T22:23:06.283Z,97.47
2018-12-10T22:25:34.395Z,96.68
2018-12-10T22:28:02.034Z,97.36
2018-12-10T22:30:30.093Z,97.20
2018-12-10T22:32:58.018Z,97.38
2018-12-10T22:35:25.955Z,97.59
2018-12-10T22:37:53.716Z,97.52
2018-12-10T22:40:22.135Z,98.44
2018-12-10T22:42:49.772Z,98.44
2018-12-10T22:45:17.472Z,98.04
2018-12-10T22:47:45.051Z,98.53
2018-12-10T22:50:12.693Z,99.70
2018-12-10T22:52:40.231Z,99.02
2018-12-10T22:55:08.439Z,97.98
2018-12-10T22:57:36.273Z,99.44
2018-12-10T23:00:07.460Z,99.89
2018-12-10T23:02:35.255Z,99.72
2018-12-10T23:05:03.123Z,99.38
2018-12-10T23:07:32.253Z,100.00
2018-12-10T23:10:00.269Z,100.00
2018-12-10T23:12:28.049Z,100.00
2018-12-10T23:14:55.720Z,100.00
2018-12-10T23:17:23.528Z,100.00
2018-12-10T23:19:51.386Z,100.00
2018-12-10T23:22:19.589Z,100.00
2018-12-10T23:24:48.178Z,100.00
2018-12-10T23:27:15.970Z,100.00
2018-12-10T23:29:43.864Z,100.00
2018-12-10T23:32:11.664Z,100.00
2018-12-10T23:34:39.228Z,100.00
2018-12-10T23:37:10.072Z,100.00
2018-12-10T23:39:38.536Z,100.00
2018-12-10T23:42:06.392Z,100.00
2018-12-10T23:47:35.531Z,100.00
2018-12-10T23:50:04.524Z,100.00
2018-12-10T23:52:34.806Z,100.00
2018-12-10T23:55:02.842Z,100.00
2018-12-10T23:57:32.727Z,100.00
